sensor_id;sensor_type;location;lat;lon;timestamp;P1;durP1;ratioP1;P2;durP2;ratioP2
58083;SDS011;43882;51.550;11.858;2022-11-30T00:01:10;53.42;;;18.60;;
58083;SDS011;43882;51.550;11.858;2022-11-30T00:03:38;56.95;;;18.73;;
58083;SDS011;43882;51.550;11.858;2022-11-30T00:06:08;48.90;;;18.27;;
58083;SDS011;43882;51.550;11.858;2022-11-30T00:08:35;49.25;;;18.50;;
58083;SDS011;43882;51.550;11.858;2022-11-30T00:11:11;60.20;;;20.70;;
58083;SDS011;43882;51.550;11.858;2022-11-30T00:13:39;47.30;;;17.40;;
58083;SDS011;43882;51.550;11.858;2022-11-30T00:16:06;51.17;;;19.20;;
58083;SDS011;43882;51.550;11.858;2022-11-30T00:18:32;64.47;;;19.60;;
58083;SDS011;43882;51.550;11.858;2022-11-30T00:21:03;50.00;;;18.10;;
58083;SDS011;43882;51.550;11.858;2022-11-30T00:23:33;47.80;;;17.13;;
58083;SDS011;43882;51.550;11.858;2022-11-30T00:26:01;46.97;;;17.30;;
58083;SDS011;43882;51.550;11.858;2022-11-30T00:28:28;51.03;;;18.55;;
58083;SDS011;43882;51.550;11.858;2022-11-30T00:30:56;40.67;;;17.48;;
58083;SDS011;43882;51.550;11.858;2022-11-30T00:33:26;45.78;;;17.50;;
58083;SDS011;43882;51.550;11.858;2022-11-30T00:35:56;57.38;;;18.70;;
58083;SDS011;43882;51.550;11.858;2022-11-30T00:38:23;46.58;;;18.77;;
58083;SDS011;43882;51.550;11.858;2022-11-30T00:40:49;48.20;;;17.55;;
58083;SDS011;43882;51.550;11.858;2022-11-30T00:43:16;56.20;;;19.60;;
58083;SDS011;43882;51.550;11.858;2022-11-30T00:45:42;55.95;;;18.17;;
58083;SDS011;43882;51.550;11.858;2022-11-30T00:48:08;54.70;;;18.60;;
58083;SDS011;43882;51.550;11.858;2022-11-30T00:50:34;53.47;;;19.60;;
58083;SDS011;43882;51.550;11.858;2022-11-30T00:53:00;52.58;;;17.75;;
58083;SDS011;43882;51.550;11.858;2022-11-30T00:55:26;56.22;;;19.70;;
58083;SDS011;43882;51.550;11.858;2022-11-30T00:57:52;64.25;;;20.02;;
58083;SDS011;43882;51.550;11.858;2022-11-30T01:00:18;66.97;;;20.52;;
58083;SDS011;43882;51.550;11.858;2022-11-30T01:02:44;72.78;;;22.77;;
58083;SDS011;43882;51.550;11.858;2022-11-30T01:05:11;80.68;;;21.25;;
58083;SDS011;43882;51.550;11.858;2022-11-30T01:07:37;83.13;;;21.25;;
58083;SDS011;43882;51.550;11.858;2022-11-30T01:10:03;54.22;;;19.30;;
58083;SDS011;43882;51.550;11.858;2022-11-30T01:12:29;58.17;;;18.75;;
58083;SDS011;43882;51.550;11.858;2022-11-30T01:14:55;72.18;;;21.20;;
58083;SDS011;43882;51.550;11.858;2022-11-30T01:17:22;51.50;;;20.05;;
58083;SDS011;43882;51.550;11.858;2022-11-30T01:19:48;50.40;;;19.33;;
58083;SDS011;43882;51.550;11.858;2022-11-30T01:22:14;71.38;;;20.08;;
58083;SDS011;43882;51.550;11.858;2022-11-30T01:24:40;61.40;;;19.90;;
58083;SDS011;43882;51.550;11.858;2022-11-30T01:27:06;79.05;;;20.30;;
58083;SDS011;43882;51.550;11.858;2022-11-30T01:29:32;55.67;;;17.83;;
58083;SDS011;43882;51.550;11.858;2022-11-30T01:31:58;46.00;;;18.17;;
58083;SDS011;43882;51.550;11.858;2022-11-30T01:34:24;62.58;;;19.45;;
58083;SDS011;43882;51.550;11.858;2022-11-30T01:36:50;51.15;;;18.80;;
58083;SDS011;43882;51.550;11.858;2022-11-30T01:39:16;49.47;;;18.33;;
58083;SDS011;43882;51.550;11.858;2022-11-30T01:41:42;68.25;;;19.92;;
58083;SDS011;43882;51.550;11.858;2022-11-30T01:46:45;96.67;;;23.73;;
58083;SDS011;43882;51.550;11.858;2022-11-30T01:49:26;66.35;;;21.55;;
58083;SDS011;43882;51.550;11.858;2022-11-30T01:54:47;93.10;;;21.23;;
58083;SDS011;43882;51.550;11.858;2022-11-30T01:57:15;97.55;;;21.77;;
58083;SDS011;43882;51.550;11.858;2022-11-30T01:59:47;84.22;;;21.45;;
58083;SDS011;43882;51.550;11.858;2022-11-30T02:02:15;76.15;;;21.70;;
58083;SDS011;43882;51.550;11.858;2022-11-30T02:04:44;93.50;;;22.38;;
58083;SDS011;43882;51.550;11.858;2022-11-30T02:07:10;134.38;;;26.35;;
58083;SDS011;43882;51.550;11.858;2022-11-30T02:09:41;121.53;;;25.92;;
58083;SDS011;43882;51.550;11.858;2022-11-30T02:12:10;132.63;;;25.30;;
58083;SDS011;43882;51.550;11.858;2022-11-30T02:14:58;146.10;;;29.70;;
58083;SDS011;43882;51.550;11.858;2022-11-30T02:29:05;53.78;;;21.05;;
58083;SDS011;43882;51.550;11.858;2022-11-30T02:31:58;52.22;;;20.40;;
58083;SDS011;43882;51.550;11.858;2022-11-30T02:34:29;53.75;;;21.67;;
58083;SDS011;43882;51.550;11.858;2022-11-30T02:36:57;49.72;;;21.15;;
58083;SDS011;43882;51.550;11.858;2022-11-30T02:39:23;49.22;;;20.17;;
58083;SDS011;43882;51.550;11.858;2022-11-30T02:41:50;40.83;;;19.20;;
58083;SDS011;43882;51.550;11.858;2022-11-30T02:44:16;45.03;;;19.20;;
58083;SDS011;43882;51.550;11.858;2022-11-30T02:47:04;43.10;;;17.83;;
58083;SDS011;43882;51.550;11.858;2022-11-30T02:49:49;47.10;;;20.15;;
58083;SDS011;43882;51.550;11.858;2022-11-30T02:52:25;41.75;;;18.08;;
58083;SDS011;43882;51.550;11.858;2022-11-30T02:54:52;42.75;;;18.52;;
58083;SDS011;43882;51.550;11.858;2022-11-30T02:57:24;37.30;;;17.73;;
58083;SDS011;43882;51.550;11.858;2022-11-30T02:59:50;39.03;;;17.30;;
58083;SDS011;43882;51.550;11.858;2022-11-30T03:02:16;41.30;;;18.55;;
58083;SDS011;43882;51.550;11.858;2022-11-30T03:04:42;40.33;;;17.73;;
58083;SDS011;43882;51.550;11.858;2022-11-30T03:07:08;42.67;;;18.25;;
58083;SDS011;43882;51.550;11.858;2022-11-30T03:09:34;43.63;;;18.50;;
58083;SDS011;43882;51.550;11.858;2022-11-30T03:12:00;41.05;;;18.02;;
58083;SDS011;43882;51.550;11.858;2022-11-30T03:14:26;37.50;;;17.88;;
58083;SDS011;43882;51.550;11.858;2022-11-30T03:16:52;40.25;;;17.63;;
58083;SDS011;43882;51.550;11.858;2022-11-30T03:19:18;38.47;;;17.73;;
58083;SDS011;43882;51.550;11.858;2022-11-30T03:21:44;34.30;;;16.60;;
58083;SDS011;43882;51.550;11.858;2022-11-30T03:24:11;39.35;;;17.10;;
58083;SDS011;43882;51.550;11.858;2022-11-30T03:26:37;40.67;;;18.25;;
58083;SDS011;43882;51.550;11.858;2022-11-30T03:29:03;41.00;;;17.90;;
58083;SDS011;43882;51.550;11.858;2022-11-30T03:31:29;39.30;;;17.63;;
58083;SDS011;43882;51.550;11.858;2022-11-30T03:33:55;37.72;;;18.50;;
58083;SDS011;43882;51.550;11.858;2022-11-30T03:36:21;38.20;;;17.60;;
58083;SDS011;43882;51.550;11.858;2022-11-30T03:38:47;37.22;;;17.50;;
58083;SDS011;43882;51.550;11.858;2022-11-30T03:41:14;36.67;;;17.77;;
58083;SDS011;43882;51.550;11.858;2022-11-30T03:43:42;37.25;;;17.67;;
58083;SDS011;43882;51.550;11.858;2022-11-30T03:46:08;37.30;;;17.17;;
58083;SDS011;43882;51.550;11.858;2022-11-30T03:48:35;40.05;;;18.02;;
58083;SDS011;43882;51.550;11.858;2022-11-30T03:51:01;36.95;;;16.80;;
58083;SDS011;43882;51.550;11.858;2022-11-30T03:53:28;34.35;;;15.95;;
58083;SDS011;43882;51.550;11.858;2022-11-30T03:55:56;38.78;;;17.08;;
58083;SDS011;43882;51.550;11.858;2022-11-30T03:58:24;41.20;;;18.77;;
58083;SDS011;43882;51.550;11.858;2022-11-30T04:01:09;38.63;;;16.92;;
58083;SDS011;43882;51.550;11.858;2022-11-30T04:03:40;38.33;;;17.92;;
58083;SDS011;43882;51.550;11.858;2022-11-30T04:06:07;39.70;;;18.83;;
58083;SDS011;43882;51.550;11.858;2022-11-30T04:08:35;36.28;;;16.70;;
58083;SDS011;43882;51.550;11.858;2022-11-30T04:11:01;36.92;;;17.63;;
58083;SDS011;43882;51.550;11.858;2022-11-30T04:13:28;37.90;;;17.58;;
58083;SDS011;43882;51.550;11.858;2022-11-30T04:15:55;36.75;;;18.00;;
58083;SDS011;43882;51.550;11.858;2022-11-30T04:18:22;37.45;;;16.95;;
58083;SDS011;43882;51.550;11.858;2022-11-30T04:20:53;43.05;;;19.48;;
58083;SDS011;43882;51.550;11.858;2022-11-30T04:23:21;37.38;;;17.17;;
58083;SDS011;43882;51.550;11.858;2022-11-30T04:25:48;36.33;;;15.95;;
58083;SDS011;43882;51.550;11.858;2022-11-30T04:28:16;36.88;;;18.23;;
58083;SDS011;43882;51.550;11.858;2022-11-30T04:30:42;38.90;;;17.60;;
58083;SDS011;43882;51.550;11.858;2022-11-30T04:33:08;38.28;;;17.55;;
58083;SDS011;43882;51.550;11.858;2022-11-30T04:35:39;37.78;;;16.27;;
58083;SDS011;43882;51.550;11.858;2022-11-30T04:38:06;34.40;;;16.10;;
58083;SDS011;43882;51.550;11.858;2022-11-30T04:40:32;36.10;;;16.85;;
58083;SDS011;43882;51.550;11.858;2022-11-30T04:42:58;37.60;;;16.80;;
58083;SDS011;43882;51.550;11.858;2022-11-30T04:45:24;35.83;;;16.58;;
58083;SDS011;43882;51.550;11.858;2022-11-30T04:47:51;36.17;;;16.80;;
58083;SDS011;43882;51.550;11.858;2022-11-30T04:50:17;36.97;;;16.23;;
58083;SDS011;43882;51.550;11.858;2022-11-30T04:52:43;36.13;;;16.35;;
58083;SDS011;43882;51.550;11.858;2022-11-30T04:55:09;39.25;;;15.57;;
58083;SDS011;43882;51.550;11.858;2022-11-30T04:57:35;34.05;;;16.08;;
58083;SDS011;43882;51.550;11.858;2022-11-30T05:00:02;38.10;;;17.13;;
58083;SDS011;43882;51.550;11.858;2022-11-30T05:02:29;35.85;;;16.27;;
58083;SDS011;43882;51.550;11.858;2022-11-30T05:04:55;38.92;;;17.33;;
58083;SDS011;43882;51.550;11.858;2022-11-30T05:07:21;40.28;;;16.73;;
58083;SDS011;43882;51.550;11.858;2022-11-30T05:09:47;36.22;;;15.90;;
58083;SDS011;43882;51.550;11.858;2022-11-30T05:12:13;36.00;;;16.73;;
58083;SDS011;43882;51.550;11.858;2022-11-30T05:14:39;38.72;;;17.50;;
58083;SDS011;43882;51.550;11.858;2022-11-30T05:17:05;40.13;;;16.77;;
58083;SDS011;43882;51.550;11.858;2022-11-30T05:19:32;38.70;;;17.15;;
58083;SDS011;43882;51.550;11.858;2022-11-30T05:21:58;38.30;;;17.65;;
58083;SDS011;43882;51.550;11.858;2022-11-30T05:24:24;38.55;;;16.63;;
58083;SDS011;43882;51.550;11.858;2022-11-30T05:26:50;40.80;;;16.48;;
58083;SDS011;43882;51.550;11.858;2022-11-30T05:29:16;39.20;;;16.52;;
58083;SDS011;43882;51.550;11.858;2022-11-30T05:31:42;35.92;;;16.52;;
58083;SDS011;43882;51.550;11.858;2022-11-30T05:34:09;40.92;;;16.75;;
58083;SDS011;43882;51.550;11.858;2022-11-30T05:36:35;41.20;;;17.90;;
58083;SDS011;43882;51.550;11.858;2022-11-30T05:39:01;42.45;;;16.73;;
58083;SDS011;43882;51.550;11.858;2022-11-30T05:41:27;39.03;;;16.67;;
58083;SDS011;43882;51.550;11.858;2022-11-30T05:43:53;39.47;;;17.00;;
58083;SDS011;43882;51.550;11.858;2022-11-30T05:46:20;40.90;;;16.88;;
58083;SDS011;43882;51.550;11.858;2022-11-30T05:48:46;40.63;;;17.13;;
58083;SDS011;43882;51.550;11.858;2022-11-30T05:51:15;43.00;;;18.63;;
58083;SDS011;43882;51.550;11.858;2022-11-30T05:53:43;39.97;;;20.92;;
58083;SDS011;43882;51.550;11.858;2022-11-30T05:56:14;44.33;;;19.17;;
58083;SDS011;43882;51.550;11.858;2022-11-30T05:58:41;47.35;;;21.90;;
58083;SDS011;43882;51.550;11.858;2022-11-30T06:01:15;52.65;;;24.40;;
58083;SDS011;43882;51.550;11.858;2022-11-30T06:03:49;50.65;;;23.35;;
58083;SDS011;43882;51.550;11.858;2022-11-30T06:06:16;48.65;;;21.75;;
58083;SDS011;43882;51.550;11.858;2022-11-30T06:08:43;51.25;;;22.85;;
58083;SDS011;43882;51.550;11.858;2022-11-30T06:11:10;63.67;;;26.02;;
58083;SDS011;43882;51.550;11.858;2022-11-30T06:13:36;56.85;;;24.50;;
58083;SDS011;43882;51.550;11.858;2022-11-30T06:16:05;54.88;;;27.92;;
58083;SDS011;43882;51.550;11.858;2022-11-30T06:18:32;47.90;;;24.17;;
58083;SDS011;43882;51.550;11.858;2022-11-30T06:20:58;61.45;;;31.38;;
58083;SDS011;43882;51.550;11.858;2022-11-30T06:23:25;69.32;;;33.80;;
58083;SDS011;43882;51.550;11.858;2022-11-30T06:25:51;53.95;;;27.73;;
58083;SDS011;43882;51.550;11.858;2022-11-30T06:28:17;50.60;;;24.05;;
58083;SDS011;43882;51.550;11.858;2022-11-30T06:30:43;50.13;;;23.35;;
58083;SDS011;43882;51.550;11.858;2022-11-30T06:33:10;48.55;;;24.35;;
58083;SDS011;43882;51.550;11.858;2022-11-30T06:35:36;66.88;;;32.60;;
58083;SDS011;43882;51.550;11.858;2022-11-30T06:38:08;48.45;;;22.23;;
58083;SDS011;43882;51.550;11.858;2022-11-30T06:40:34;41.95;;;18.67;;
58083;SDS011;43882;51.550;11.858;2022-11-30T06:43:00;43.20;;;20.95;;
58083;SDS011;43882;51.550;11.858;2022-11-30T06:45:26;42.95;;;19.60;;
58083;SDS011;43882;51.550;11.858;2022-11-30T06:47:55;44.42;;;21.40;;
58083;SDS011;43882;51.550;11.858;2022-11-30T06:50:21;42.30;;;21.23;;
58083;SDS011;43882;51.550;11.858;2022-11-30T06:52:48;46.00;;;23.63;;
58083;SDS011;43882;51.550;11.858;2022-11-30T06:55:14;41.95;;;19.30;;
58083;SDS011;43882;51.550;11.858;2022-11-30T06:57:40;42.58;;;20.02;;
58083;SDS011;43882;51.550;11.858;2022-11-30T07:00:07;41.55;;;19.90;;
58083;SDS011;43882;51.550;11.858;2022-11-30T07:02:34;42.38;;;19.38;;
58083;SDS011;43882;51.550;11.858;2022-11-30T07:05:01;40.78;;;18.48;;
58083;SDS011;43882;51.550;11.858;2022-11-30T07:07:27;50.20;;;25.88;;
58083;SDS011;43882;51.550;11.858;2022-11-30T07:09:54;56.75;;;32.28;;
58083;SDS011;43882;51.550;11.858;2022-11-30T07:12:21;74.75;;;44.45;;
58083;SDS011;43882;51.550;11.858;2022-11-30T07:14:47;57.80;;;33.47;;
58083;SDS011;43882;51.550;11.858;2022-11-30T07:17:16;56.05;;;34.80;;
58083;SDS011;43882;51.550;11.858;2022-11-30T07:19:43;45.78;;;23.45;;
58083;SDS011;43882;51.550;11.858;2022-11-30T07:22:11;42.58;;;21.20;;
58083;SDS011;43882;51.550;11.858;2022-11-30T07:24:37;49.42;;;26.65;;
58083;SDS011;43882;51.550;11.858;2022-11-30T07:27:22;55.75;;;34.90;;
58083;SDS011;43882;51.550;11.858;2022-11-30T07:29:48;51.58;;;31.65;;
58083;SDS011;43882;51.550;11.858;2022-11-30T07:32:16;54.63;;;32.75;;
58083;SDS011;43882;51.550;11.858;2022-11-30T07:34:43;50.70;;;23.50;;
58083;SDS011;43882;51.550;11.858;2022-11-30T07:37:09;51.80;;;23.73;;
58083;SDS011;43882;51.550;11.858;2022-11-30T07:39:35;46.25;;;20.77;;
58083;SDS011;43882;51.550;11.858;2022-11-30T07:42:02;45.88;;;20.10;;
58083;SDS011;43882;51.550;11.858;2022-11-30T07:44:28;50.08;;;20.67;;
58083;SDS011;43882;51.550;11.858;2022-11-30T07:46:54;45.67;;;20.02;;
58083;SDS011;43882;51.550;11.858;2022-11-30T07:49:20;44.55;;;21.02;;
58083;SDS011;43882;51.550;11.858;2022-11-30T07:51:46;47.03;;;21.15;;
58083;SDS011;43882;51.550;11.858;2022-11-30T07:54:12;47.92;;;22.50;;
58083;SDS011;43882;51.550;11.858;2022-11-30T07:56:39;56.33;;;28.83;;
58083;SDS011;43882;51.550;11.858;2022-11-30T07:59:05;60.88;;;31.85;;
58083;SDS011;43882;51.550;11.858;2022-11-30T08:01:31;57.30;;;32.13;;
58083;SDS011;43882;51.550;11.858;2022-11-30T08:03:58;55.75;;;29.25;;
58083;SDS011;43882;51.550;11.858;2022-11-30T08:06:25;50.92;;;23.67;;
58083;SDS011;43882;51.550;11.858;2022-11-30T08:08:53;53.60;;;22.45;;
58083;SDS011;43882;51.550;11.858;2022-11-30T08:11:23;48.80;;;22.48;;
58083;SDS011;43882;51.550;11.858;2022-11-30T08:13:51;47.65;;;20.48;;
58083;SDS011;43882;51.550;11.858;2022-11-30T08:16:22;49.35;;;20.48;;
58083;SDS011;43882;51.550;11.858;2022-11-30T08:18:49;55.47;;;21.55;;
58083;SDS011;43882;51.550;11.858;2022-11-30T08:21:16;58.58;;;22.15;;
58083;SDS011;43882;51.550;11.858;2022-11-30T08:23:54;54.55;;;22.67;;
58083;SDS011;43882;51.550;11.858;2022-11-30T08:26:21;57.80;;;22.42;;
58083;SDS011;43882;51.550;11.858;2022-11-30T08:29:28;57.78;;;22.65;;
58083;SDS011;43882;51.550;11.858;2022-11-30T08:31:54;59.35;;;23.85;;
58083;SDS011;43882;51.550;11.858;2022-11-30T08:34:20;59.80;;;24.77;;
58083;SDS011;43882;51.550;11.858;2022-11-30T08:36:46;58.88;;;24.90;;
58083;SDS011;43882;51.550;11.858;2022-11-30T08:39:13;61.75;;;23.83;;
58083;SDS011;43882;51.550;11.858;2022-11-30T08:41:39;63.13;;;24.65;;
58083;SDS011;43882;51.550;11.858;2022-11-30T08:44:05;67.40;;;26.67;;
58083;SDS011;43882;51.550;11.858;2022-11-30T08:46:31;67.40;;;25.48;;
58083;SDS011;43882;51.550;11.858;2022-11-30T08:48:58;61.63;;;26.02;;
58083;SDS011;43882;51.550;11.858;2022-11-30T08:51:24;67.72;;;25.90;;
58083;SDS011;43882;51.550;11.858;2022-11-30T08:53:50;76.20;;;26.23;;
58083;SDS011;43882;51.550;11.858;2022-11-30T08:56:18;67.82;;;26.58;;
58083;SDS011;43882;51.550;11.858;2022-11-30T08:58:45;67.38;;;25.77;;
58083;SDS011;43882;51.550;11.858;2022-11-30T09:03:39;69.80;;;26.40;;
58083;SDS011;43882;51.550;11.858;2022-11-30T09:06:07;65.63;;;25.95;;
58083;SDS011;43882;51.550;11.858;2022-11-30T09:08:54;63.28;;;25.40;;
58083;SDS011;43882;51.550;11.858;2022-11-30T09:11:23;69.03;;;27.90;;
58083;SDS011;43882;51.550;11.858;2022-11-30T09:13:54;68.18;;;27.08;;
58083;SDS011;43882;51.550;11.858;2022-11-30T09:16:22;64.65;;;27.25;;
58083;SDS011;43882;51.550;11.858;2022-11-30T09:18:49;62.13;;;25.88;;
58083;SDS011;43882;51.550;11.858;2022-11-30T09:21:17;57.25;;;25.08;;
58083;SDS011;43882;51.550;11.858;2022-11-30T09:23:45;62.92;;;25.10;;
58083;SDS011;43882;51.550;11.858;2022-11-30T09:26:13;62.03;;;25.60;;
58083;SDS011;43882;51.550;11.858;2022-11-30T09:28:43;59.17;;;25.73;;
58083;SDS011;43882;51.550;11.858;2022-11-30T09:31:10;57.97;;;24.63;;
58083;SDS011;43882;51.550;11.858;2022-11-30T09:33:38;57.22;;;23.33;;
58083;SDS011;43882;51.550;11.858;2022-11-30T09:36:06;58.97;;;23.48;;
58083;SDS011;43882;51.550;11.858;2022-11-30T09:38:33;59.35;;;23.40;;
58083;SDS011;43882;51.550;11.858;2022-11-30T09:41:01;57.50;;;24.92;;
58083;SDS011;43882;51.550;11.858;2022-11-30T09:47:01;60.60;;;24.17;;
58083;SDS011;43882;51.550;11.858;2022-11-30T09:49:36;65.93;;;24.83;;
58083;SDS011;43882;51.550;11.858;2022-11-30T09:52:08;60.30;;;25.08;;
58083;SDS011;43882;51.550;11.858;2022-11-30T09:54:39;61.90;;;23.92;;
58083;SDS011;43882;51.550;11.858;2022-11-30T09:59:54;55.83;;;23.00;;
58083;SDS011;43882;51.550;11.858;2022-11-30T10:02:24;61.95;;;24.83;;
58083;SDS011;43882;51.550;11.858;2022-11-30T10:04:56;62.88;;;25.90;;
58083;SDS011;43882;51.550;11.858;2022-11-30T10:07:40;55.17;;;24.27;;
58083;SDS011;43882;51.550;11.858;2022-11-30T10:10:36;64.55;;;24.70;;
58083;SDS011;43882;51.550;11.858;2022-11-30T10:18:59;57.28;;;24.95;;
58083;SDS011;43882;51.550;11.858;2022-11-30T10:30:16;59.30;;;23.23;;
58083;SDS011;43882;51.550;11.858;2022-11-30T10:32:46;61.75;;;24.58;;
58083;SDS011;43882;51.550;11.858;2022-11-30T10:37:53;59.03;;;25.88;;
58083;SDS011;43882;51.550;11.858;2022-11-30T10:40:24;61.80;;;26.08;;
58083;SDS011;43882;51.550;11.858;2022-11-30T10:43:01;71.55;;;30.83;;
58083;SDS011;43882;51.550;11.858;2022-11-30T10:45:30;64.00;;;27.52;;
58083;SDS011;43882;51.550;11.858;2022-11-30T10:50:29;80.75;;;36.78;;
58083;SDS011;43882;51.550;11.858;2022-11-30T10:52:56;64.88;;;27.52;;
58083;SDS011;43882;51.550;11.858;2022-11-30T10:55:24;58.80;;;26.50;;
58083;SDS011;43882;51.550;11.858;2022-11-30T11:00:33;66.28;;;26.23;;
58083;SDS011;43882;51.550;11.858;2022-11-30T11:03:00;77.35;;;33.80;;
58083;SDS011;43882;51.550;11.858;2022-11-30T11:05:29;60.95;;;26.77;;
58083;SDS011;43882;51.550;11.858;2022-11-30T11:07:57;57.10;;;23.80;;
58083;SDS011;43882;51.550;11.858;2022-11-30T11:10:34;70.55;;;30.08;;
58083;SDS011;43882;51.550;11.858;2022-11-30T11:13:04;63.45;;;25.23;;
58083;SDS011;43882;51.550;11.858;2022-11-30T11:15:31;57.65;;;25.02;;
58083;SDS011;43882;51.550;11.858;2022-11-30T11:20:45;65.72;;;24.92;;
58083;SDS011;43882;51.550;11.858;2022-11-30T11:23:21;59.45;;;25.33;;
58083;SDS011;43882;51.550;11.858;2022-11-30T11:25:59;54.95;;;23.33;;
58083;SDS011;43882;51.550;11.858;2022-11-30T11:28:25;58.85;;;23.52;;
58083;SDS011;43882;51.550;11.858;2022-11-30T11:30:52;64.82;;;28.13;;
58083;SDS011;43882;51.550;11.858;2022-11-30T11:33:21;56.20;;;24.48;;
58083;SDS011;43882;51.550;11.858;2022-11-30T11:35:50;71.85;;;30.33;;
58083;SDS011;43882;51.550;11.858;2022-11-30T11:41:07;65.03;;;24.88;;
58083;SDS011;43882;51.550;11.858;2022-11-30T11:46:36;58.00;;;24.00;;
58083;SDS011;43882;51.550;11.858;2022-11-30T11:49:22;59.28;;;24.00;;
58083;SDS011;43882;51.550;11.858;2022-11-30T11:51:58;65.25;;;26.00;;
58083;SDS011;43882;51.550;11.858;2022-11-30T11:54:38;62.22;;;26.83;;
58083;SDS011;43882;51.550;11.858;2022-11-30T11:57:15;64.32;;;26.30;;
58083;SDS011;43882;51.550;11.858;2022-11-30T12:13:14;58.90;;;23.40;;
58083;SDS011;43882;51.550;11.858;2022-11-30T12:15:44;62.35;;;25.25;;
58083;SDS011;43882;51.550;11.858;2022-11-30T12:18:41;60.53;;;25.67;;
58083;SDS011;43882;51.550;11.858;2022-11-30T12:46:02;57.90;;;23.37;;
58083;SDS011;43882;51.550;11.858;2022-11-30T12:48:42;60.72;;;24.77;;
58083;SDS011;43882;51.550;11.858;2022-11-30T12:57:20;53.13;;;23.33;;
58083;SDS011;43882;51.550;11.858;2022-11-30T13:02:44;54.50;;;23.98;;
58083;SDS011;43882;51.550;11.858;2022-11-30T13:05:37;58.65;;;23.15;;
58083;SDS011;43882;51.550;11.858;2022-11-30T13:13:07;55.50;;;22.65;;
58083;SDS011;43882;51.550;11.858;2022-11-30T13:15:49;52.58;;;23.20;;
58083;SDS011;43882;51.550;11.858;2022-11-30T13:18:16;55.17;;;23.35;;
58083;SDS011;43882;51.550;11.858;2022-11-30T13:20:49;56.22;;;23.55;;
58083;SDS011;43882;51.550;11.858;2022-11-30T13:23:30;60.03;;;23.90;;
58083;SDS011;43882;51.550;11.858;2022-11-30T13:31:32;51.78;;;21.75;;
58083;SDS011;43882;51.550;11.858;2022-11-30T13:34:00;56.10;;;23.23;;
58083;SDS011;43882;51.550;11.858;2022-11-30T13:36:34;55.72;;;22.50;;
58083;SDS011;43882;51.550;11.858;2022-11-30T13:41:37;53.75;;;23.52;;
58083;SDS011;43882;51.550;11.858;2022-11-30T13:46:52;58.85;;;22.15;;
58083;SDS011;43882;51.550;11.858;2022-11-30T13:49:20;56.63;;;21.83;;
58083;SDS011;43882;51.550;11.858;2022-11-30T13:51:48;56.67;;;22.20;;
58083;SDS011;43882;51.550;11.858;2022-11-30T13:59:53;54.13;;;22.75;;
58083;SDS011;43882;51.550;11.858;2022-11-30T14:13:41;54.10;;;23.30;;
58083;SDS011;43882;51.550;11.858;2022-11-30T14:25:48;54.58;;;22.70;;
58083;SDS011;43882;51.550;11.858;2022-11-30T14:28:20;57.40;;;23.40;;
58083;SDS011;43882;51.550;11.858;2022-11-30T14:30:59;55.22;;;23.65;;
58083;SDS011;43882;51.550;11.858;2022-11-30T14:33:38;58.08;;;23.67;;
58083;SDS011;43882;51.550;11.858;2022-11-30T14:36:12;53.72;;;22.67;;
58083;SDS011;43882;51.550;11.858;2022-11-30T14:38:40;50.72;;;21.65;;
58083;SDS011;43882;51.550;11.858;2022-11-30T14:41:17;51.22;;;22.05;;
58083;SDS011;43882;51.550;11.858;2022-11-30T14:46:49;51.72;;;22.15;;
58083;SDS011;43882;51.550;11.858;2022-11-30T14:49:19;51.45;;;21.88;;
58083;SDS011;43882;51.550;11.858;2022-11-30T14:51:48;55.60;;;21.88;;
58083;SDS011;43882;51.550;11.858;2022-11-30T14:56:57;58.67;;;23.15;;
58083;SDS011;43882;51.550;11.858;2022-11-30T14:59:39;52.67;;;21.70;;
58083;SDS011;43882;51.550;11.858;2022-11-30T15:04:54;53.25;;;21.67;;
58083;SDS011;43882;51.550;11.858;2022-11-30T15:07:21;51.75;;;21.83;;
58083;SDS011;43882;51.550;11.858;2022-11-30T15:09:50;51.90;;;21.95;;
58083;SDS011;43882;51.550;11.858;2022-11-30T15:12:22;53.17;;;21.40;;
58083;SDS011;43882;51.550;11.858;2022-11-30T15:17:29;51.17;;;21.00;;
58083;SDS011;43882;51.550;11.858;2022-11-30T15:19:56;49.42;;;20.80;;
58083;SDS011;43882;51.550;11.858;2022-11-30T15:22:22;49.50;;;21.20;;
58083;SDS011;43882;51.550;11.858;2022-11-30T15:24:48;51.55;;;22.13;;
58083;SDS011;43882;51.550;11.858;2022-11-30T15:27:17;54.58;;;21.23;;
58083;SDS011;43882;51.550;11.858;2022-11-30T15:29:48;48.35;;;20.73;;
58083;SDS011;43882;51.550;11.858;2022-11-30T15:32:21;53.47;;;21.27;;
58083;SDS011;43882;51.550;11.858;2022-11-30T15:34:49;48.45;;;21.67;;
58083;SDS011;43882;51.550;11.858;2022-11-30T15:37:26;49.45;;;21.60;;
58083;SDS011;43882;51.550;11.858;2022-11-30T15:39:57;47.30;;;20.60;;
58083;SDS011;43882;51.550;11.858;2022-11-30T15:42:31;51.00;;;20.45;;
58083;SDS011;43882;51.550;11.858;2022-11-30T15:45:16;48.33;;;20.45;;
58083;SDS011;43882;51.550;11.858;2022-11-30T15:47:44;52.38;;;21.23;;
58083;SDS011;43882;51.550;11.858;2022-11-30T15:52:55;57.70;;;22.45;;
58083;SDS011;43882;51.550;11.858;2022-11-30T15:58:04;49.72;;;20.35;;
58083;SDS011;43882;51.550;11.858;2022-11-30T16:00:56;45.80;;;19.63;;
58083;SDS011;43882;51.550;11.858;2022-11-30T16:03:29;49.63;;;19.38;;
58083;SDS011;43882;51.550;11.858;2022-11-30T16:05:57;51.40;;;20.35;;
58083;SDS011;43882;51.550;11.858;2022-11-30T16:08:25;47.47;;;20.00;;
58083;SDS011;43882;51.550;11.858;2022-11-30T16:10:51;48.78;;;20.15;;
58083;SDS011;43882;51.550;11.858;2022-11-30T16:13:19;46.72;;;19.98;;
58083;SDS011;43882;51.550;11.858;2022-11-30T16:15:47;47.42;;;21.67;;
58083;SDS011;43882;51.550;11.858;2022-11-30T16:18:19;53.10;;;21.40;;
58083;SDS011;43882;51.550;11.858;2022-11-30T16:20:55;48.20;;;21.48;;
58083;SDS011;43882;51.550;11.858;2022-11-30T16:23:22;49.08;;;20.00;;
58083;SDS011;43882;51.550;11.858;2022-11-30T16:25:49;49.00;;;21.25;;
58083;SDS011;43882;51.550;11.858;2022-11-30T16:28:15;52.47;;;19.67;;
58083;SDS011;43882;51.550;11.858;2022-11-30T16:30:42;52.20;;;21.35;;
58083;SDS011;43882;51.550;11.858;2022-11-30T16:35:55;48.95;;;19.23;;
58083;SDS011;43882;51.550;11.858;2022-11-30T16:38:23;44.22;;;20.63;;
58083;SDS011;43882;51.550;11.858;2022-11-30T16:40:49;45.17;;;19.88;;
58083;SDS011;43882;51.550;11.858;2022-11-30T16:43:18;47.78;;;19.42;;
58083;SDS011;43882;51.550;11.858;2022-11-30T16:45:44;47.03;;;19.77;;
58083;SDS011;43882;51.550;11.858;2022-11-30T16:48:11;46.85;;;19.92;;
58083;SDS011;43882;51.550;11.858;2022-11-30T16:50:38;45.70;;;19.70;;
58083;SDS011;43882;51.550;11.858;2022-11-30T16:53:05;44.95;;;19.25;;
58083;SDS011;43882;51.550;11.858;2022-11-30T16:55:36;51.65;;;20.02;;
58083;SDS011;43882;51.550;11.858;2022-11-30T16:58:03;47.97;;;19.70;;
58083;SDS011;43882;51.550;11.858;2022-11-30T17:00:29;45.35;;;18.70;;
58083;SDS011;43882;51.550;11.858;2022-11-30T17:03:00;48.45;;;20.10;;
58083;SDS011;43882;51.550;11.858;2022-11-30T17:05:39;46.90;;;19.95;;